sensor_id;sensor_type;location;lat;lon;timestamp;temperature;humidity
15343;DHT22;7771;48.478;8.936;2022-09-09T00:02:20;16.10;99.90
15343;DHT22;7771;48.478;8.936;2022-09-09T00:04:53;16.20;99.90
15343;DHT22;7771;48.478;8.936;2022-09-09T00:07:21;16.20;99.90
15343;DHT22;7771;48.478;8.936;2022-09-09T00:09:46;16.20;99.90
15343;DHT22;7771;48.478;8.936;2022-09-09T00:12:15;16.20;99.90
15343;DHT22;7771;48.478;8.936;2022-09-09T00:14:45;16.20;99.90
15343;DHT22;7771;48.478;8.936;2022-09-09T00:17:10;16.20;99.90
15343;DHT22;7771;48.478;8.936;2022-09-09T00:19:39;16.20;99.90
15343;DHT22;7771;48.478;8.936;2022-09-09T00:22:21;16.20;99.90
15343;DHT22;7771;48.478;8.936;2022-09-09T00:24:55;16.20;99.90
15343;DHT22;7771;48.478;8.936;2022-09-09T00:27:41;16.20;99.90
15343;DHT22;7771;48.478;8.936;2022-09-09T00:30:23;16.10;99.90
15343;DHT22;7771;48.478;8.936;2022-09-09T00:32:50;16.20;99.90
15343;DHT22;7771;48.478;8.936;2022-09-09T00:35:34;16.10;99.90
15343;DHT22;7771;48.478;8.936;2022-09-09T00:38:01;16.10;99.90
15343;DHT22;7771;48.478;8.936;2022-09-09T00:40:32;16.00;99.90
15343;DHT22;7771;48.478;8.936;2022-09-09T00:43:08;16.00;99.90
15343;DHT22;7771;48.478;8.936;2022-09-09T00:45:39;16.00;99.90
15343;DHT22;7771;48.478;8.936;2022-09-09T00:48:03;16.00;99.90
15343;DHT22;7771;48.478;8.936;2022-09-09T00:50:39;15.90;99.90
15343;DHT22;7771;48.478;8.936;2022-09-09T00:53:19;15.90;99.90
15343;DHT22;7771;48.478;8.936;2022-09-09T00:55:56;15.90;99.90
15343;DHT22;7771;48.478;8.936;2022-09-09T00:58:23;15.90;99.90
15343;DHT22;7771;48.478;8.936;2022-09-09T01:00:52;15.90;99.90
15343;DHT22;7771;48.478;8.936;2022-09-09T01:03:25;15.90;99.90
15343;DHT22;7771;48.478;8.936;2022-09-09T01:05:55;15.80;99.90
15343;DHT22;7771;48.478;8.936;2022-09-09T01:08:41;15.80;99.90
15343;DHT22;7771;48.478;8.936;2022-09-09T01:11:05;15.80;99.90
15343;DHT22;7771;48.478;8.936;2022-09-09T01:13:32;15.80;99.90
15343;DHT22;7771;48.478;8.936;2022-09-09T01:16:00;15.70;99.90
15343;DHT22;7771;48.478;8.936;2022-09-09T01:18:27;15.60;99.90
15343;DHT22;7771;48.478;8.936;2022-09-09T01:21:16;15.50;99.90
15343;DHT22;7771;48.478;8.936;2022-09-09T01:23:45;15.40;99.90
15343;DHT22;7771;48.478;8.936;2022-09-09T01:28:47;15.40;99.90
15343;DHT22;7771;48.478;8.936;2022-09-09T01:31:15;15.40;99.90
15343;DHT22;7771;48.478;8.936;2022-09-09T01:33:40;15.30;99.90
15343;DHT22;7771;48.478;8.936;2022-09-09T01:36:12;15.40;99.90
15343;DHT22;7771;48.478;8.936;2022-09-09T01:38:36;15.30;99.90
15343;DHT22;7771;48.478;8.936;2022-09-09T01:41:03;15.30;99.90
15343;DHT22;7771;48.478;8.936;2022-09-09T01:43:29;15.30;99.90
15343;DHT22;7771;48.478;8.936;2022-09-09T01:45:58;15.30;99.90
15343;DHT22;7771;48.478;8.936;2022-09-09T01:48:23;15.20;99.90
15343;DHT22;7771;48.478;8.936;2022-09-09T01:50:50;15.20;99.90
15343;DHT22;7771;48.478;8.936;2022-09-09T01:53:17;15.20;99.90
15343;DHT22;7771;48.478;8.936;2022-09-09T01:55:47;15.10;99.90
15343;DHT22;7771;48.478;8.936;2022-09-09T01:58:17;15.00;99.90
15343;DHT22;7771;48.478;8.936;2022-09-09T02:00:43;15.10;99.90
15343;DHT22;7771;48.478;8.936;2022-09-09T02:03:19;15.10;99.90
15343;DHT22;7771;48.478;8.936;2022-09-09T02:05:45;16.10;99.90
15343;DHT22;7771;48.478;8.936;2022-09-09T02:08:15;15.00;99.90
15343;DHT22;7771;48.478;8.936;2022-09-09T02:10:46;15.10;99.90
15343;DHT22;7771;48.478;8.936;2022-09-09T02:13:13;15.10;99.90
15343;DHT22;7771;48.478;8.936;2022-09-09T02:15:45;15.00;99.90
15343;DHT22;7771;48.478;8.936;2022-09-09T02:18:09;15.10;99.90
15343;DHT22;7771;48.478;8.936;2022-09-09T02:20:37;15.10;99.90
15343;DHT22;7771;48.478;8.936;2022-09-09T02:23:03;15.10;99.90
15343;DHT22;7771;48.478;8.936;2022-09-09T02:25:30;15.10;99.90
15343;DHT22;7771;48.478;8.936;2022-09-09T02:27:58;15.10;99.90
15343;DHT22;7771;48.478;8.936;2022-09-09T02:30:26;15.10;99.90
15343;DHT22;7771;48.478;8.936;2022-09-09T02:32:53;15.10;99.90
15343;DHT22;7771;48.478;8.936;2022-09-09T02:35:20;15.10;99.90
15343;DHT22;7771;48.478;8.936;2022-09-09T02:37:46;15.20;99.90
15343;DHT22;7771;48.478;8.936;2022-09-09T02:40:13;15.10;99.90
15343;DHT22;7771;48.478;8.936;2022-09-09T02:42:40;15.20;99.90
15343;DHT22;7771;48.478;8.936;2022-09-09T02:45:08;15.30;99.90
15343;DHT22;7771;48.478;8.936;2022-09-09T02:47:35;15.30;99.90
15343;DHT22;7771;48.478;8.936;2022-09-09T02:50:11;15.30;99.90
15343;DHT22;7771;48.478;8.936;2022-09-09T02:52:56;15.30;99.90
15343;DHT22;7771;48.478;8.936;2022-09-09T02:55:45;15.40;99.90
15343;DHT22;7771;48.478;8.936;2022-09-09T02:58:12;15.40;99.90
15343;DHT22;7771;48.478;8.936;2022-09-09T03:00:38;15.30;99.90
15343;DHT22;7771;48.478;8.936;2022-09-09T03:03:06;15.30;99.90
15343;DHT22;7771;48.478;8.936;2022-09-09T03:05:32;15.30;99.90
15343;DHT22;7771;48.478;8.936;2022-09-09T03:07:59;15.30;99.90
15343;DHT22;7771;48.478;8.936;2022-09-09T03:10:26;15.30;99.90
15343;DHT22;7771;48.478;8.936;2022-09-09T03:12:54;15.30;99.90
15343;DHT22;7771;48.478;8.936;2022-09-09T03:15:21;15.30;99.90
15343;DHT22;7771;48.478;8.936;2022-09-09T03:17:48;15.30;99.90
15343;DHT22;7771;48.478;8.936;2022-09-09T03:20:16;15.30;99.90
15343;DHT22;7771;48.478;8.936;2022-09-09T03:22:42;15.30;99.90
15343;DHT22;7771;48.478;8.936;2022-09-09T03:25:09;15.30;99.90
15343;DHT22;7771;48.478;8.936;2022-09-09T03:27:35;15.40;99.90
15343;DHT22;7771;48.478;8.936;2022-09-09T03:30:03;15.40;99.90
15343;DHT22;7771;48.478;8.936;2022-09-09T03:32:30;15.40;99.90
15343;DHT22;7771;48.478;8.936;2022-09-09T03:34:58;15.40;99.90
15343;DHT22;7771;48.478;8.936;2022-09-09T03:37:25;15.40;99.90
15343;DHT22;7771;48.478;8.936;2022-09-09T03:39:52;15.40;99.90
15343;DHT22;7771;48.478;8.936;2022-09-09T03:42:19;15.40;99.90
15343;DHT22;7771;48.478;8.936;2022-09-09T03:44:46;15.50;99.90
15343;DHT22;7771;48.478;8.936;2022-09-09T03:47:17;15.40;99.90
15343;DHT22;7771;48.478;8.936;2022-09-09T03:49:43;15.40;99.90
15343;DHT22;7771;48.478;8.936;2022-09-09T03:52:10;15.40;99.90
15343;DHT22;7771;48.478;8.936;2022-09-09T03:54:37;15.40;99.90
15343;DHT22;7771;48.478;8.936;2022-09-09T03:57:03;15.30;99.90
15343;DHT22;7771;48.478;8.936;2022-09-09T03:59:30;15.30;99.90
15343;DHT22;7771;48.478;8.936;2022-09-09T04:01:58;15.30;99.90
15343;DHT22;7771;48.478;8.936;2022-09-09T04:04:24;15.30;99.90
15343;DHT22;7771;48.478;8.936;2022-09-09T04:06:51;15.20;99.90
15343;DHT22;7771;48.478;8.936;2022-09-09T04:09:17;15.20;99.90
15343;DHT22;7771;48.478;8.936;2022-09-09T04:11:45;15.30;99.90
15343;DHT22;7771;48.478;8.936;2022-09-09T04:14:12;15.30;99.90
15343;DHT22;7771;48.478;8.936;2022-09-09T04:16:39;15.30;99.90
15343;DHT22;7771;48.478;8.936;2022-09-09T04:19:07;15.30;99.90
15343;DHT22;7771;48.478;8.936;2022-09-09T04:21:34;15.40;99.90
15343;DHT22;7771;48.478;8.936;2022-09-09T04:24:01;15.40;99.90
15343;DHT22;7771;48.478;8.936;2022-09-09T04:26:27;15.40;99.90
15343;DHT22;7771;48.478;8.936;2022-09-09T04:28:54;15.40;99.90
15343;DHT22;7771;48.478;8.936;2022-09-09T04:31:22;15.50;99.90
15343;DHT22;7771;48.478;8.936;2022-09-09T04:33:49;15.50;99.90
15343;DHT22;7771;48.478;8.936;2022-09-09T04:36:16;15.50;99.90
15343;DHT22;7771;48.478;8.936;2022-09-09T04:38:42;15.50;99.90
15343;DHT22;7771;48.478;8.936;2022-09-09T04:41:09;15.50;99.90
15343;DHT22;7771;48.478;8.936;2022-09-09T04:43:35;15.50;99.90
15343;DHT22;7771;48.478;8.936;2022-09-09T04:46:02;15.50;99.90
15343;DHT22;7771;48.478;8.936;2022-09-09T04:48:29;15.50;99.90
15343;DHT22;7771;48.478;8.936;2022-09-09T04:50:57;15.50;99.90
15343;DHT22;7771;48.478;8.936;2022-09-09T04:53:23;15.50;99.90
15343;DHT22;7771;48.478;8.936;2022-09-09T04:55:49;15.50;99.90
15343;DHT22;7771;48.478;8.936;2022-09-09T04:58:16;15.50;99.90
15343;DHT22;7771;48.478;8.936;2022-09-09T05:00:42;15.50;99.90
15343;DHT22;7771;48.478;8.936;2022-09-09T05:03:09;15.50;99.90
15343;DHT22;7771;48.478;8.936;2022-09-09T05:05:36;15.60;99.90
15343;DHT22;7771;48.478;8.936;2022-09-09T05:08:04;15.60;99.90
15343;DHT22;7771;48.478;8.936;2022-09-09T05:10:31;15.60;99.90
15343;DHT22;7771;48.478;8.936;2022-09-09T05:12:58;15.60;99.90
15343;DHT22;7771;48.478;8.936;2022-09-09T05:15:24;15.60;99.90
15343;DHT22;7771;48.478;8.936;2022-09-09T05:17:56;15.70;99.90
15343;DHT22;7771;48.478;8.936;2022-09-09T05:20:19;15.70;99.90
15343;DHT22;7771;48.478;8.936;2022-09-09T05:22:45;15.70;99.90
15343;DHT22;7771;48.478;8.936;2022-09-09T05:25:12;15.80;99.90
15343;DHT22;7771;48.478;8.936;2022-09-09T05:27:39;15.80;99.90
15343;DHT22;7771;48.478;8.936;2022-09-09T05:30:06;15.80;99.90
15343;DHT22;7771;48.478;8.936;2022-09-09T05:32:32;15.90;99.90
15343;DHT22;7771;48.478;8.936;2022-09-09T05:34:59;15.90;99.90
15343;DHT22;7771;48.478;8.936;2022-09-09T05:37:26;16.00;99.90
15343;DHT22;7771;48.478;8.936;2022-09-09T05:39:53;16.10;99.90
15343;DHT22;7771;48.478;8.936;2022-09-09T05:42:19;16.00;99.90
15343;DHT22;7771;48.478;8.936;2022-09-09T05:47:32;16.10;99.90
15343;DHT22;7771;48.478;8.936;2022-09-09T05:49:59;16.10;99.90
15343;DHT22;7771;48.478;8.936;2022-09-09T05:52:26;16.10;99.90
15343;DHT22;7771;48.478;8.936;2022-09-09T05:54:53;16.20;99.90
15343;DHT22;7771;48.478;8.936;2022-09-09T05:57:19;16.30;99.90
15343;DHT22;7771;48.478;8.936;2022-09-09T05:59:46;16.30;99.90
15343;DHT22;7771;48.478;8.936;2022-09-09T06:02:12;16.40;99.90
15343;DHT22;7771;48.478;8.936;2022-09-09T06:04:39;16.40;99.90
15343;DHT22;7771;48.478;8.936;2022-09-09T06:07:06;16.50;99.90
15343;DHT22;7771;48.478;8.936;2022-09-09T06:09:33;16.60;99.90
15343;DHT22;7771;48.478;8.936;2022-09-09T06:12:00;16.60;99.90
15343;DHT22;7771;48.478;8.936;2022-09-09T06:14:27;16.70;99.90
15343;DHT22;7771;48.478;8.936;2022-09-09T06:16:54;16.70;99.90
15343;DHT22;7771;48.478;8.936;2022-09-09T06:19:20;16.70;99.90
15343;DHT22;7771;48.478;8.936;2022-09-09T06:21:47;16.70;99.90
15343;DHT22;7771;48.478;8.936;2022-09-09T06:24:13;16.70;99.90
15343;DHT22;7771;48.478;8.936;2022-09-09T06:26:40;16.80;99.90
15343;DHT22;7771;48.478;8.936;2022-09-09T06:29:08;16.80;99.90
15343;DHT22;7771;48.478;8.936;2022-09-09T06:31:35;16.90;99.90
15343;DHT22;7771;48.478;8.936;2022-09-09T06:34:04;16.90;99.90
15343;DHT22;7771;48.478;8.936;2022-09-09T06:36:32;16.90;99.90
15343;DHT22;7771;48.478;8.936;2022-09-09T06:38:57;17.00;99.90
15343;DHT22;7771;48.478;8.936;2022-09-09T06:41:24;17.00;99.90
15343;DHT22;7771;48.478;8.936;2022-09-09T06:43:50;17.10;99.90
15343;DHT22;7771;48.478;8.936;2022-09-09T06:46:18;17.20;99.90
15343;DHT22;7771;48.478;8.936;2022-09-09T06:48:44;17.30;99.90
15343;DHT22;7771;48.478;8.936;2022-09-09T06:51:12;17.20;99.90
15343;DHT22;7771;48.478;8.936;2022-09-09T06:53:39;17.40;99.90
15343;DHT22;7771;48.478;8.936;2022-09-09T06:56:26;17.50;99.90
15343;DHT22;7771;48.478;8.936;2022-09-09T06:58:52;17.60;99.90
15343;DHT22;7771;48.478;8.936;2022-09-09T07:01:19;17.70;99.90
15343;DHT22;7771;48.478;8.936;2022-09-09T07:03:47;17.80;99.90
15343;DHT22;7771;48.478;8.936;2022-09-09T07:06:16;17.90;99.90
15343;DHT22;7771;48.478;8.936;2022-09-09T07:08:42;18.00;99.90
15343;DHT22;7771;48.478;8.936;2022-09-09T07:11:09;18.10;99.90
15343;DHT22;7771;48.478;8.936;2022-09-09T07:13:35;18.20;99.90
15343;DHT22;7771;48.478;8.936;2022-09-09T07:16:05;18.30;99.90
15343;DHT22;7771;48.478;8.936;2022-09-09T07:18:31;18.40;99.90
15343;DHT22;7771;48.478;8.936;2022-09-09T07:20:57;18.50;99.90
15343;DHT22;7771;48.478;8.936;2022-09-09T07:23:25;18.60;99.90
15343;DHT22;7771;48.478;8.936;2022-09-09T07:25:52;18.80;99.90
15343;DHT22;7771;48.478;8.936;2022-09-09T07:28:20;18.90;99.90
15343;DHT22;7771;48.478;8.936;2022-09-09T07:30:55;19.00;99.90
15343;DHT22;7771;48.478;8.936;2022-09-09T07:33:20;19.20;99.90
15343;DHT22;7771;48.478;8.936;2022-09-09T07:35:47;19.60;99.90
15343;DHT22;7771;48.478;8.936;2022-09-09T07:38:13;20.20;99.90
15343;DHT22;7771;48.478;8.936;2022-09-09T07:40:41;20.70;99.90
15343;DHT22;7771;48.478;8.936;2022-09-09T07:43:08;20.90;99.90
15343;DHT22;7771;48.478;8.936;2022-09-09T07:45:35;20.90;99.90
15343;DHT22;7771;48.478;8.936;2022-09-09T07:48:02;21.00;99.90
15343;DHT22;7771;48.478;8.936;2022-09-09T07:50:29;20.90;99.90
15343;DHT22;7771;48.478;8.936;2022-09-09T07:52:55;20.90;99.90
15343;DHT22;7771;48.478;8.936;2022-09-09T07:55:22;20.90;99.90
15343;DHT22;7771;48.478;8.936;2022-09-09T07:57:53;20.70;99.90
15343;DHT22;7771;48.478;8.936;2022-09-09T08:00:19;20.60;99.90
15343;DHT22;7771;48.478;8.936;2022-09-09T08:02:46;20.40;99.90
15343;DHT22;7771;48.478;8.936;2022-09-09T08:05:12;20.20;99.90
15343;DHT22;7771;48.478;8.936;2022-09-09T08:07:39;20.20;99.90
15343;DHT22;7771;48.478;8.936;2022-09-09T08:10:06;20.10;99.90
15343;DHT22;7771;48.478;8.936;2022-09-09T08:12:33;20.10;99.90
15343;DHT22;7771;48.478;8.936;2022-09-09T08:15:00;20.20;99.90
15343;DHT22;7771;48.478;8.936;2022-09-09T08:17:26;20.40;99.90
15343;DHT22;7771;48.478;8.936;2022-09-09T08:19:53;20.50;99.90
15343;DHT22;7771;48.478;8.936;2022-09-09T08:22:25;20.60;99.90
15343;DHT22;7771;48.478;8.936;2022-09-09T08:24:52;20.80;99.90
15343;DHT22;7771;48.478;8.936;2022-09-09T08:27:19;20.90;99.90
15343;DHT22;7771;48.478;8.936;2022-09-09T08:29:46;20.90;99.90
15343;DHT22;7771;48.478;8.936;2022-09-09T08:32:13;21.00;99.90
15343;DHT22;7771;48.478;8.936;2022-09-09T08:34:40;21.00;99.90
15343;DHT22;7771;48.478;8.936;2022-09-09T08:37:08;21.10;99.90
15343;DHT22;7771;48.478;8.936;2022-09-09T08:39:35;21.20;99.90
15343;DHT22;7771;48.478;8.936;2022-09-09T08:42:09;21.30;99.90
15343;DHT22;7771;48.478;8.936;2022-09-09T08:47:29;21.40;99.90
15343;DHT22;7771;48.478;8.936;2022-09-09T08:50:17;21.60;99.90
15343;DHT22;7771;48.478;8.936;2022-09-09T08:52:49;21.80;99.90
15343;DHT22;7771;48.478;8.936;2022-09-09T08:55:35;22.00;99.90
15343;DHT22;7771;48.478;8.936;2022-09-09T08:57:57;22.40;99.90
15343;DHT22;7771;48.478;8.936;2022-09-09T09:00:25;22.40;99.90
15343;DHT22;7771;48.478;8.936;2022-09-09T09:03:01;23.00;99.90
15343;DHT22;7771;48.478;8.936;2022-09-09T09:05:32;23.00;99.90
15343;DHT22;7771;48.478;8.936;2022-09-09T09:08:06;23.50;99.90
15343;DHT22;7771;48.478;8.936;2022-09-09T09:10:37;23.50;99.90
15343;DHT22;7771;48.478;8.936;2022-09-09T09:13:00;23.90;99.90
15343;DHT22;7771;48.478;8.936;2022-09-09T09:15:28;24.00;99.90
15343;DHT22;7771;48.478;8.936;2022-09-09T09:17:53;24.00;99.90
15343;DHT22;7771;48.478;8.936;2022-09-09T09:20:24;24.20;99.90
15343;DHT22;7771;48.478;8.936;2022-09-09T09:22:49;24.20;99.90
15343;DHT22;7771;48.478;8.936;2022-09-09T09:25:20;24.30;99.90
15343;DHT22;7771;48.478;8.936;2022-09-09T09:27:51;24.30;99.90
15343;DHT22;7771;48.478;8.936;2022-09-09T09:30:18;24.50;99.90
15343;DHT22;7771;48.478;8.936;2022-09-09T09:32:46;24.50;99.90
15343;DHT22;7771;48.478;8.936;2022-09-09T09:35:11;24.70;98.30
15343;DHT22;7771;48.478;8.936;2022-09-09T09:37:39;24.70;98.10
15343;DHT22;7771;48.478;8.936;2022-09-09T09:40:12;24.80;98.30
15343;DHT22;7771;48.478;8.936;2022-09-09T09:42:38;24.80;97.40
15343;DHT22;7771;48.478;8.936;2022-09-09T09:45:08;24.80;96.10
15343;DHT22;7771;48.478;8.936;2022-09-09T09:47:34;24.70;96.00
15343;DHT22;7771;48.478;8.936;2022-09-09T09:50:00;24.70;96.50
15343;DHT22;7771;48.478;8.936;2022-09-09T09:52:28;24.60;96.80
15343;DHT22;7771;48.478;8.936;2022-09-09T09:54:54;24.70;96.80
15343;DHT22;7771;48.478;8.936;2022-09-09T09:57:23;24.70;97.00
15343;DHT22;7771;48.478;8.936;2022-09-09T09:59:47;24.80;97.20
15343;DHT22;7771;48.478;8.936;2022-09-09T10:02:17;24.90;97.10
15343;DHT22;7771;48.478;8.936;2022-09-09T10:04:42;25.00;96.70
15343;DHT22;7771;48.478;8.936;2022-09-09T10:07:11;25.10;96.80
15343;DHT22;7771;48.478;8.936;2022-09-09T10:09:37;25.20;96.50
15343;DHT22;7771;48.478;8.936;2022-09-09T10:12:37;25.10;95.60
15343;DHT22;7771;48.478;8.936;2022-09-09T10:15:30;25.10;95.80
15343;DHT22;7771;48.478;8.936;2022-09-09T10:18:08;25.00;95.90
15343;DHT22;7771;48.478;8.936;2022-09-09T10:23:15;24.80;94.80
15343;DHT22;7771;48.478;8.936;2022-09-09T10:26:03;24.80;94.00
15343;DHT22;7771;48.478;8.936;2022-09-09T10:28:33;24.80;94.10
15343;DHT22;7771;48.478;8.936;2022-09-09T10:36:21;24.90;94.40
15343;DHT22;7771;48.478;8.936;2022-09-09T10:39:05;25.00;94.00
15343;DHT22;7771;48.478;8.936;2022-09-09T10:41:55;25.00;92.50
15343;DHT22;7771;48.478;8.936;2022-09-09T10:47:01;25.10;91.80
15343;DHT22;7771;48.478;8.936;2022-09-09T10:49:35;25.20;92.00
15343;DHT22;7771;48.478;8.936;2022-09-09T10:52:15;25.30;91.60
15343;DHT22;7771;48.478;8.936;2022-09-09T10:54:47;25.30;92.20
15343;DHT22;7771;48.478;8.936;2022-09-09T10:57:14;25.30;92.00
15343;DHT22;7771;48.478;8.936;2022-09-09T10:59:42;25.30;92.00
15343;DHT22;7771;48.478;8.936;2022-09-09T11:02:13;25.40;89.40
15343;DHT22;7771;48.478;8.936;2022-09-09T11:04:45;25.40;87.60
15343;DHT22;7771;48.478;8.936;2022-09-09T11:07:10;25.30;88.40
15343;DHT22;7771;48.478;8.936;2022-09-09T11:09:38;25.40;91.60
15343;DHT22;7771;48.478;8.936;2022-09-09T11:12:03;25.20;91.90
15343;DHT22;7771;48.478;8.936;2022-09-09T11:14:36;25.00;92.20
15343;DHT22;7771;48.478;8.936;2022-09-09T11:17:01;24.70;92.40
15343;DHT22;7771;48.478;8.936;2022-09-09T11:19:35;24.40;92.20
15343;DHT22;7771;48.478;8.936;2022-09-09T11:22:02;24.40;92.60
15343;DHT22;7771;48.478;8.936;2022-09-09T11:24:31;24.00;93.00
15343;DHT22;7771;48.478;8.936;2022-09-09T11:26:57;23.90;92.90
15343;DHT22;7771;48.478;8.936;2022-09-09T11:29:37;24.00;91.40
15343;DHT22;7771;48.478;8.936;2022-09-09T11:34:36;24.30;89.40
15343;DHT22;7771;48.478;8.936;2022-09-09T11:39:38;24.30;90.10
15343;DHT22;7771;48.478;8.936;2022-09-09T11:42:06;24.70;88.90
15343;DHT22;7771;48.478;8.936;2022-09-09T11:44:32;24.80;88.80
15343;DHT22;7771;48.478;8.936;2022-09-09T11:46:59;24.70;89.30
15343;DHT22;7771;48.478;8.936;2022-09-09T11:49:29;24.90;88.90
15343;DHT22;7771;48.478;8.936;2022-09-09T11:51:54;24.90;88.90
15343;DHT22;7771;48.478;8.936;2022-09-09T11:54:29;25.00;88.50
15343;DHT22;7771;48.478;8.936;2022-09-09T11:56:53;25.00;88.80
15343;DHT22;7771;48.478;8.936;2022-09-09T11:59:22;25.10;86.40
15343;DHT22;7771;48.478;8.936;2022-09-09T12:01:50;25.10;87.10
15343;DHT22;7771;48.478;8.936;2022-09-09T12:04:27;25.10;87.60
15343;DHT22;7771;48.478;8.936;2022-09-09T12:06:57;25.10;88.20
15343;DHT22;7771;48.478;8.936;2022-09-09T12:12:05;25.00;89.60
15343;DHT22;7771;48.478;8.936;2022-09-09T12:14:36;25.00;90.20
15343;DHT22;7771;48.478;8.936;2022-09-09T12:17:09;25.20;90.60
15343;DHT22;7771;48.478;8.936;2022-09-09T12:19:35;25.20;90.30
15343;DHT22;7771;48.478;8.936;2022-09-09T12:22:07;25.20;90.50
15343;DHT22;7771;48.478;8.936;2022-09-09T12:24:36;25.20;89.90
15343;DHT22;7771;48.478;8.936;2022-09-09T12:27:07;25.00;90.10
15343;DHT22;7771;48.478;8.936;2022-09-09T12:29:40;24.80;90.00
15343;DHT22;7771;48.478;8.936;2022-09-09T12:32:07;24.80;90.20
15343;DHT22;7771;48.478;8.936;2022-09-09T12:34:40;24.50;89.80
15343;DHT22;7771;48.478;8.936;2022-09-09T12:37:13;24.50;90.20
15343;DHT22;7771;48.478;8.936;2022-09-09T12:39:37;24.20;88.90
15343;DHT22;7771;48.478;8.936;2022-09-09T12:42:02;24.00;90.10
15343;DHT22;7771;48.478;8.936;2022-09-09T12:44:28;23.90;90.30
15343;DHT22;7771;48.478;8.936;2022-09-09T12:46:56;23.80;90.50
15343;DHT22;7771;48.478;8.936;2022-09-09T12:49:28;23.70;90.80
15343;DHT22;7771;48.478;8.936;2022-09-09T12:51:53;23.70;91.10
15343;DHT22;7771;48.478;8.936;2022-09-09T12:54:19;23.60;91.50
15343;DHT22;7771;48.478;8.936;2022-09-09T12:56:46;23.90;91.50
15343;DHT22;7771;48.478;8.936;2022-09-09T12:59:27;24.10;91.30
15343;DHT22;7771;48.478;8.936;2022-09-09T13:01:55;24.30;91.20
15343;DHT22;7771;48.478;8.936;2022-09-09T13:04:21;24.30;91.10
15343;DHT22;7771;48.478;8.936;2022-09-09T13:06:48;24.50;90.70
15343;DHT22;7771;48.478;8.936;2022-09-09T13:09:15;24.50;91.00
15343;DHT22;7771;48.478;8.936;2022-09-09T13:11:43;24.60;90.90
15343;DHT22;7771;48.478;8.936;2022-09-09T13:14:14;24.60;90.80
15343;DHT22;7771;48.478;8.936;2022-09-09T13:16:38;24.60;90.80
15343;DHT22;7771;48.478;8.936;2022-09-09T13:19:08;24.60;90.70
15343;DHT22;7771;48.478;8.936;2022-09-09T13:21:35;24.40;89.30
15343;DHT22;7771;48.478;8.936;2022-09-09T13:24:01;24.40;89.80
15343;DHT22;7771;48.478;8.936;2022-09-09T13:26:31;24.30;89.10
15343;DHT22;7771;48.478;8.936;2022-09-09T13:29:18;24.20;89.30
15343;DHT22;7771;48.478;8.936;2022-09-09T13:31:44;24.30;89.10
15343;DHT22;7771;48.478;8.936;2022-09-09T13:34:13;24.50;88.80
15343;DHT22;7771;48.478;8.936;2022-09-09T13:36:38;24.50;89.40
15343;DHT22;7771;48.478;8.936;2022-09-09T13:39:13;24.60;87.70
15343;DHT22;7771;48.478;8.936;2022-09-09T13:41:33;24.70;86.90
15343;DHT22;7771;48.478;8.936;2022-09-09T13:44:00;24.80;86.90
15343;DHT22;7771;48.478;8.936;2022-09-09T13:46:34;24.90;85.60
15343;DHT22;7771;48.478;8.936;2022-09-09T13:49:33;24.90;85.50
15343;DHT22;7771;48.478;8.936;2022-09-09T13:51:44;25.00;85.20
15343;DHT22;7771;48.478;8.936;2022-09-09T13:54:10;25.00;85.20
15343;DHT22;7771;48.478;8.936;2022-09-09T13:56:37;25.00;85.50
15343;DHT22;7771;48.478;8.936;2022-09-09T13:59:04;25.30;83.40
15343;DHT22;7771;48.478;8.936;2022-09-09T14:04:17;25.30;83.60
15343;DHT22;7771;48.478;8.936;2022-09-09T14:06:43;25.20;83.50
15343;DHT22;7771;48.478;8.936;2022-09-09T14:09:11;25.20;84.00
15343;DHT22;7771;48.478;8.936;2022-09-09T14:11:36;25.10;82.80
15343;DHT22;7771;48.478;8.936;2022-09-09T14:14:03;25.10;82.20
15343;DHT22;7771;48.478;8.936;2022-09-09T14:16:29;25.10;81.60
15343;DHT22;7771;48.478;8.936;2022-09-09T14:18:57;25.00;82.50
15343;DHT22;7771;48.478;8.936;2022-09-09T14:21:25;25.00;83.10
15343;DHT22;7771;48.478;8.936;2022-09-09T14:23:52;25.10;82.60
15343;DHT22;7771;48.478;8.936;2022-09-09T14:26:21;25.00;82.80
15343;DHT22;7771;48.478;8.936;2022-09-09T14:28:48;24.90;83.40
15343;DHT22;7771;48.478;8.936;2022-09-09T14:31:15;24.90;83.40
15343;DHT22;7771;48.478;8.936;2022-09-09T14:33:41;24.90;81.80
15343;DHT22;7771;48.478;8.936;2022-09-09T14:36:09;24.90;82.30
15343;DHT22;7771;48.478;8.936;2022-09-09T14:38:36;24.90;82.00
15343;DHT22;7771;48.478;8.936;2022-09-09T14:41:03;24.80;82.50
15343;DHT22;7771;48.478;8.936;2022-09-09T14:43:30;24.90;83.00
15343;DHT22;7771;48.478;8.936;2022-09-09T14:46:04;24.90;83.30
15343;DHT22;7771;48.478;8.936;2022-09-09T14:48:25;24.90;83.10
15343;DHT22;7771;48.478;8.936;2022-09-09T14:50:52;24.80;82.50
15343;DHT22;7771;48.478;8.936;2022-09-09T14:53:19;24.80;81.70
15343;DHT22;7771;48.478;8.936;2022-09-09T14:55:46;24.60;80.20
15343;DHT22;7771;48.478;8.936;2022-09-09T14:58:13;24.60;80.80
15343;DHT22;7771;48.478;8.936;2022-09-09T15:00:39;24.60;78.60
15343;DHT22;7771;48.478;8.936;2022-09-09T15:03:06;24.60;79.00
15343;DHT22;7771;48.478;8.936;2022-09-09T15:05:32;24.70;78.00
15343;DHT22;7771;48.478;8.936;2022-09-09T15:07:59;24.70;78.00
15343;DHT22;7771;48.478;8.936;2022-09-09T15:10:25;24.60;78.90
15343;DHT22;7771;48.478;8.936;2022-09-09T15:12:53;24.40;80.10
15343;DHT22;7771;48.478;8.936;2022-09-09T15:15:20;24.30;81.20
15343;DHT22;7771;48.478;8.936;2022-09-09T15:17:47;24.20;81.40
15343;DHT22;7771;48.478;8.936;2022-09-09T15:20:14;24.10;81.70
15343;DHT22;7771;48.478;8.936;2022-09-09T15:22:41;24.00;83.10
15343;DHT22;7771;48.478;8.936;2022-09-09T15:25:08;23.90;83.60
15343;DHT22;7771;48.478;8.936;2022-09-09T15:27:36;23.80;83.30
15343;DHT22;7771;48.478;8.936;2022-09-09T15:30:03;23.60;82.30
15343;DHT22;7771;48.478;8.936;2022-09-09T15:32:30;23.60;82.00
15343;DHT22;7771;48.478;8.936;2022-09-09T15:34:57;23.40;81.70
15343;DHT22;7771;48.478;8.936;2022-09-09T15:37:24;23.50;82.30
15343;DHT22;7771;48.478;8.936;2022-09-09T15:39:50;23.50;81.90
15343;DHT22;7771;48.478;8.936;2022-09-09T15:42:17;23.30;81.70
15343;DHT22;7771;48.478;8.936;2022-09-09T15:44:43;23.30;82.10
15343;DHT22;7771;48.478;8.936;2022-09-09T15:47:11;23.20;81.90
15343;DHT22;7771;48.478;8.936;2022-09-09T15:49:38;23.20;82.70
15343;DHT22;7771;48.478;8.936;2022-09-09T15:52:05;23.10;82.40
15343;DHT22;7771;48.478;8.936;2022-09-09T15:54:34;23.00;83.00
15343;DHT22;7771;48.478;8.936;2022-09-09T15:57:01;22.90;83.70
15343;DHT22;7771;48.478;8.936;2022-09-09T15:59:29;22.90;84.00
15343;DHT22;7771;48.478;8.936;2022-09-09T16:01:55;22.80;84.60
15343;DHT22;7771;48.478;8.936;2022-09-09T16:04:23;22.80;85.20
15343;DHT22;7771;48.478;8.936;2022-09-09T16:06:51;22.80;85.20
15343;DHT22;7771;48.478;8.936;2022-09-09T16:09:18;22.80;85.00
15343;DHT22;7771;48.478;8.936;2022-09-09T16:11:44;22.70;85.70
15343;DHT22;7771;48.478;8.936;2022-09-09T16:14:12;19.10;84.40
15343;DHT22;7771;48.478;8.936;2022-09-09T16:16:39;22.70;87.00
15343;DHT22;7771;48.478;8.936;2022-09-09T16:19:06;22.70;86.90
15343;DHT22;7771;48.478;8.936;2022-09-09T16:21:34;22.60;87.20
15343;DHT22;7771;48.478;8.936;2022-09-09T16:24:00;22.60;87.80